Archival Weather

Chicago O'Hare International

Chicago, Illinois (KORD)

Report from: Saturday, December 31, 2022 3:51 AM CST
Current time: Saturday, September 30, 2023 10:01 PM CDT

Current weather
Weather history
Weather forecast

Temperature-2.2°C (28.0°F)
Wind chill-5.7°C (21.7°F)
Dew point-4.4°C (24.1°F)
Winds 5 kts (2.6 m/s, 5.8 mph) Northwest (320°)
Visibility10 mi. (16.1 km)
Clouds Ceiling: Broken clouds 25,000 ft. (7,620 m)
Altimeter29.93 in.Hg (1014 mB)
Relative humidity85 %
Density altitude-2,076 ft. (-633 m)
Sea-level pressure101.4 kPa (1014 mB, 29.95 in.Hg)
Remarks Automated weather observing station with precipitation discriminator
Flight conditions Visual Meteorological Conditions
Raw dataKORD 310951Z 32005KT 10SM BKN250 M02/M04 A2993 RMK AO2 SLP142 T10221044
An error has occurred. This application may no longer respond until reloaded. Reload 🗙